sensor_id;sensor_type;location;lat;lon;timestamp;P1;durP1;ratioP1;P2;durP2;ratioP2
21170;SDS011;10743;52.160;20.910;2023-11-21T00:00:14;21.87;;;9.60;;
21170;SDS011;10743;52.160;20.910;2023-11-21T00:02:42;29.20;;;10.07;;
21170;SDS011;10743;52.160;20.910;2023-11-21T00:05:11;26.07;;;9.53;;
21170;SDS011;10743;52.160;20.910;2023-11-21T00:07:42;21.27;;;8.93;;
21170;SDS011;10743;52.160;20.910;2023-11-21T00:10:10;27.40;;;9.53;;
21170;SDS011;10743;52.160;20.910;2023-11-21T00:12:40;26.07;;;9.67;;
21170;SDS011;10743;52.160;20.910;2023-11-21T00:15:08;22.60;;;9.77;;
21170;SDS011;10743;52.160;20.910;2023-11-21T00:17:40;25.33;;;9.47;;
21170;SDS011;10743;52.160;20.910;2023-11-21T00:20:07;26.80;;;10.03;;
21170;SDS011;10743;52.160;20.910;2023-11-21T00:22:35;27.90;;;10.83;;
21170;SDS011;10743;52.160;20.910;2023-11-21T00:25:02;22.90;;;9.93;;
21170;SDS011;10743;52.160;20.910;2023-11-21T00:27:30;32.00;;;11.43;;
21170;SDS011;10743;52.160;20.910;2023-11-21T00:29:57;30.77;;;9.90;;
21170;SDS011;10743;52.160;20.910;2023-11-21T00:32:24;26.83;;;11.10;;
21170;SDS011;10743;52.160;20.910;2023-11-21T00:34:51;24.27;;;10.03;;
21170;SDS011;10743;52.160;20.910;2023-11-21T00:37:18;28.20;;;10.97;;
21170;SDS011;10743;52.160;20.910;2023-11-21T00:39:46;28.40;;;10.97;;
21170;SDS011;10743;52.160;20.910;2023-11-21T00:42:13;28.37;;;11.87;;
21170;SDS011;10743;52.160;20.910;2023-11-21T00:44:40;27.53;;;11.00;;
21170;SDS011;10743;52.160;20.910;2023-11-21T00:47:07;33.20;;;11.50;;
21170;SDS011;10743;52.160;20.910;2023-11-21T00:49:35;32.20;;;12.43;;
21170;SDS011;10743;52.160;20.910;2023-11-21T00:52:02;31.27;;;12.27;;
21170;SDS011;10743;52.160;20.910;2023-11-21T00:54:29;31.73;;;11.43;;
21170;SDS011;10743;52.160;20.910;2023-11-21T00:56:59;29.23;;;11.80;;
21170;SDS011;10743;52.160;20.910;2023-11-21T00:59:26;29.20;;;12.07;;
21170;SDS011;10743;52.160;20.910;2023-11-21T01:01:53;31.63;;;12.07;;
21170;SDS011;10743;52.160;20.910;2023-11-21T01:04:20;29.97;;;11.60;;
21170;SDS011;10743;52.160;20.910;2023-11-21T01:06:47;32.17;;;11.77;;
21170;SDS011;10743;52.160;20.910;2023-11-21T01:09:14;33.80;;;12.57;;
21170;SDS011;10743;52.160;20.910;2023-11-21T01:11:44;32.17;;;11.97;;
21170;SDS011;10743;52.160;20.910;2023-11-21T01:14:13;34.30;;;12.10;;
21170;SDS011;10743;52.160;20.910;2023-11-21T01:16:40;34.30;;;11.83;;
21170;SDS011;10743;52.160;20.910;2023-11-21T01:19:07;32.70;;;12.00;;
21170;SDS011;10743;52.160;20.910;2023-11-21T01:21:36;34.60;;;12.90;;
21170;SDS011;10743;52.160;20.910;2023-11-21T01:24:03;32.47;;;12.57;;
21170;SDS011;10743;52.160;20.910;2023-11-21T01:26:33;31.60;;;12.17;;
21170;SDS011;10743;52.160;20.910;2023-11-21T01:29:00;36.10;;;12.67;;
21170;SDS011;10743;52.160;20.910;2023-11-21T01:31:27;27.37;;;11.77;;
21170;SDS011;10743;52.160;20.910;2023-11-21T01:33:56;32.63;;;12.20;;
21170;SDS011;10743;52.160;20.910;2023-11-21T01:36:29;33.43;;;12.13;;
21170;SDS011;10743;52.160;20.910;2023-11-21T01:38:59;33.17;;;12.37;;
21170;SDS011;10743;52.160;20.910;2023-11-21T01:41:27;38.60;;;12.57;;
21170;SDS011;10743;52.160;20.910;2023-11-21T01:43:55;33.43;;;12.83;;
21170;SDS011;10743;52.160;20.910;2023-11-21T01:46:23;36.50;;;13.07;;
21170;SDS011;10743;52.160;20.910;2023-11-21T01:48:50;39.57;;;13.17;;
21170;SDS011;10743;52.160;20.910;2023-11-21T01:51:19;35.13;;;11.97;;
21170;SDS011;10743;52.160;20.910;2023-11-21T01:53:47;35.00;;;12.53;;
21170;SDS011;10743;52.160;20.910;2023-11-21T01:56:15;29.70;;;11.43;;
21170;SDS011;10743;52.160;20.910;2023-11-21T01:58:43;35.07;;;12.93;;
21170;SDS011;10743;52.160;20.910;2023-11-21T02:01:10;36.53;;;12.77;;
21170;SDS011;10743;52.160;20.910;2023-11-21T02:03:37;33.83;;;12.77;;
21170;SDS011;10743;52.160;20.910;2023-11-21T02:06:07;31.87;;;11.73;;
21170;SDS011;10743;52.160;20.910;2023-11-21T02:08:35;37.50;;;11.17;;
21170;SDS011;10743;52.160;20.910;2023-11-21T02:11:04;30.10;;;12.00;;
21170;SDS011;10743;52.160;20.910;2023-11-21T02:13:31;30.87;;;11.23;;
21170;SDS011;10743;52.160;20.910;2023-11-21T02:15:59;27.23;;;12.63;;
21170;SDS011;10743;52.160;20.910;2023-11-21T02:18:27;32.70;;;12.07;;
21170;SDS011;10743;52.160;20.910;2023-11-21T02:20:55;35.20;;;12.40;;
21170;SDS011;10743;52.160;20.910;2023-11-21T02:23:23;32.53;;;12.77;;
21170;SDS011;10743;52.160;20.910;2023-11-21T02:25:55;31.53;;;12.80;;
21170;SDS011;10743;52.160;20.910;2023-11-21T02:28:23;33.17;;;12.37;;
21170;SDS011;10743;52.160;20.910;2023-11-21T02:30:52;26.93;;;11.30;;
21170;SDS011;10743;52.160;20.910;2023-11-21T02:33:23;29.63;;;11.97;;
21170;SDS011;10743;52.160;20.910;2023-11-21T02:35:50;29.07;;;12.33;;
21170;SDS011;10743;52.160;20.910;2023-11-21T02:38:21;24.63;;;11.03;;
21170;SDS011;10743;52.160;20.910;2023-11-21T02:40:48;25.53;;;9.80;;
21170;SDS011;10743;52.160;20.910;2023-11-21T02:43:16;30.03;;;10.70;;
21170;SDS011;10743;52.160;20.910;2023-11-21T02:45:44;27.67;;;10.67;;
21170;SDS011;10743;52.160;20.910;2023-11-21T02:48:11;22.40;;;9.73;;
21170;SDS011;10743;52.160;20.910;2023-11-21T02:50:38;23.47;;;10.33;;
21170;SDS011;10743;52.160;20.910;2023-11-21T02:53:06;27.77;;;11.60;;
21170;SDS011;10743;52.160;20.910;2023-11-21T02:55:33;26.13;;;10.40;;
21170;SDS011;10743;52.160;20.910;2023-11-21T02:58:03;26.03;;;10.50;;
21170;SDS011;10743;52.160;20.910;2023-11-21T03:00:30;24.00;;;10.00;;
21170;SDS011;10743;52.160;20.910;2023-11-21T03:02:57;21.77;;;9.47;;
21170;SDS011;10743;52.160;20.910;2023-11-21T03:05:25;24.57;;;10.30;;
21170;SDS011;10743;52.160;20.910;2023-11-21T03:07:52;25.00;;;10.20;;
21170;SDS011;10743;52.160;20.910;2023-11-21T03:10:19;24.50;;;9.70;;
21170;SDS011;10743;52.160;20.910;2023-11-21T03:12:46;22.67;;;9.73;;
21170;SDS011;10743;52.160;20.910;2023-11-21T03:15:13;23.00;;;10.10;;
21170;SDS011;10743;52.160;20.910;2023-11-21T03:17:42;22.90;;;10.27;;
21170;SDS011;10743;52.160;20.910;2023-11-21T03:20:09;27.90;;;11.17;;
21170;SDS011;10743;52.160;20.910;2023-11-21T03:22:38;23.97;;;10.30;;
21170;SDS011;10743;52.160;20.910;2023-11-21T03:25:05;21.73;;;9.60;;
21170;SDS011;10743;52.160;20.910;2023-11-21T03:27:37;23.40;;;9.97;;
21170;SDS011;10743;52.160;20.910;2023-11-21T03:30:07;21.63;;;9.73;;
21170;SDS011;10743;52.160;20.910;2023-11-21T03:32:37;21.03;;;9.53;;
21170;SDS011;10743;52.160;20.910;2023-11-21T03:35:04;19.57;;;9.60;;
21170;SDS011;10743;52.160;20.910;2023-11-21T03:37:32;25.03;;;10.03;;
21170;SDS011;10743;52.160;20.910;2023-11-21T03:40:00;24.77;;;10.57;;
21170;SDS011;10743;52.160;20.910;2023-11-21T03:42:27;20.87;;;9.90;;
21170;SDS011;10743;52.160;20.910;2023-11-21T03:44:54;24.93;;;10.63;;
21170;SDS011;10743;52.160;20.910;2023-11-21T03:47:21;23.13;;;9.83;;
21170;SDS011;10743;52.160;20.910;2023-11-21T03:49:49;22.60;;;9.77;;
21170;SDS011;10743;52.160;20.910;2023-11-21T03:52:16;30.67;;;10.77;;
21170;SDS011;10743;52.160;20.910;2023-11-21T03:54:43;22.07;;;9.83;;
21170;SDS011;10743;52.160;20.910;2023-11-21T03:57:10;24.20;;;10.03;;
21170;SDS011;10743;52.160;20.910;2023-11-21T03:59:41;23.03;;;10.17;;
21170;SDS011;10743;52.160;20.910;2023-11-21T04:02:09;22.57;;;10.03;;
21170;SDS011;10743;52.160;20.910;2023-11-21T04:04:36;22.87;;;9.77;;
21170;SDS011;10743;52.160;20.910;2023-11-21T04:07:03;24.70;;;9.63;;
21170;SDS011;10743;52.160;20.910;2023-11-21T04:09:31;21.87;;;9.30;;
21170;SDS011;10743;52.160;20.910;2023-11-21T04:11:58;24.97;;;10.27;;
21170;SDS011;10743;52.160;20.910;2023-11-21T04:14:25;28.80;;;11.00;;
21170;SDS011;10743;52.160;20.910;2023-11-21T04:16:52;26.10;;;10.53;;
21170;SDS011;10743;52.160;20.910;2023-11-21T04:19:20;25.53;;;10.33;;
21170;SDS011;10743;52.160;20.910;2023-11-21T04:21:47;23.73;;;10.20;;
21170;SDS011;10743;52.160;20.910;2023-11-21T04:24:15;23.37;;;9.47;;
21170;SDS011;10743;52.160;20.910;2023-11-21T04:26:43;21.67;;;9.13;;
21170;SDS011;10743;52.160;20.910;2023-11-21T04:29:10;26.13;;;9.30;;
21170;SDS011;10743;52.160;20.910;2023-11-21T04:31:37;28.17;;;9.83;;
21170;SDS011;10743;52.160;20.910;2023-11-21T04:34:05;26.10;;;9.07;;
21170;SDS011;10743;52.160;20.910;2023-11-21T04:36:32;22.70;;;8.47;;
21170;SDS011;10743;52.160;20.910;2023-11-21T04:38:59;19.30;;;8.30;;
21170;SDS011;10743;52.160;20.910;2023-11-21T04:41:26;18.50;;;8.43;;
21170;SDS011;10743;52.160;20.910;2023-11-21T04:43:53;25.43;;;8.67;;
21170;SDS011;10743;52.160;20.910;2023-11-21T04:46:20;21.93;;;8.83;;
21170;SDS011;10743;52.160;20.910;2023-11-21T04:48:48;25.60;;;8.40;;
21170;SDS011;10743;52.160;20.910;2023-11-21T04:51:15;20.77;;;8.93;;
21170;SDS011;10743;52.160;20.910;2023-11-21T04:53:42;19.73;;;8.70;;
21170;SDS011;10743;52.160;20.910;2023-11-21T04:56:09;17.83;;;8.13;;
21170;SDS011;10743;52.160;20.910;2023-11-21T04:58:36;22.30;;;7.70;;
21170;SDS011;10743;52.160;20.910;2023-11-21T05:01:07;21.70;;;7.97;;
21170;SDS011;10743;52.160;20.910;2023-11-21T05:03:34;21.83;;;7.87;;
21170;SDS011;10743;52.160;20.910;2023-11-21T05:06:02;22.17;;;8.13;;
21170;SDS011;10743;52.160;20.910;2023-11-21T05:08:31;20.33;;;8.27;;
21170;SDS011;10743;52.160;20.910;2023-11-21T05:10:58;21.80;;;7.97;;
21170;SDS011;10743;52.160;20.910;2023-11-21T05:13:25;18.23;;;7.83;;
21170;SDS011;10743;52.160;20.910;2023-11-21T05:15:54;21.77;;;8.03;;
21170;SDS011;10743;52.160;20.910;2023-11-21T05:18:25;22.67;;;8.23;;
21170;SDS011;10743;52.160;20.910;2023-11-21T05:20:56;23.40;;;8.27;;
21170;SDS011;10743;52.160;20.910;2023-11-21T05:23:24;22.00;;;8.13;;
21170;SDS011;10743;52.160;20.910;2023-11-21T05:25:51;19.10;;;7.77;;
21170;SDS011;10743;52.160;20.910;2023-11-21T05:28:18;22.33;;;8.43;;
21170;SDS011;10743;52.160;20.910;2023-11-21T05:30:45;18.07;;;8.30;;
21170;SDS011;10743;52.160;20.910;2023-11-21T05:33:12;18.57;;;7.87;;
21170;SDS011;10743;52.160;20.910;2023-11-21T05:35:39;21.30;;;8.17;;
21170;SDS011;10743;52.160;20.910;2023-11-21T05:38:06;22.47;;;7.87;;
21170;SDS011;10743;52.160;20.910;2023-11-21T05:40:33;24.13;;;7.47;;
21170;SDS011;10743;52.160;20.910;2023-11-21T05:43:00;17.87;;;6.97;;
21170;SDS011;10743;52.160;20.910;2023-11-21T05:45:28;17.33;;;6.97;;
21170;SDS011;10743;52.160;20.910;2023-11-21T05:47:57;20.63;;;7.67;;
21170;SDS011;10743;52.160;20.910;2023-11-21T05:50:25;23.10;;;7.97;;
21170;SDS011;10743;52.160;20.910;2023-11-21T05:52:52;19.90;;;7.77;;
21170;SDS011;10743;52.160;20.910;2023-11-21T05:55:19;23.27;;;8.03;;
21170;SDS011;10743;52.160;20.910;2023-11-21T05:57:52;23.57;;;8.60;;
21170;SDS011;10743;52.160;20.910;2023-11-21T06:00:20;21.47;;;8.03;;
21170;SDS011;10743;52.160;20.910;2023-11-21T06:02:52;23.30;;;8.37;;
21170;SDS011;10743;52.160;20.910;2023-11-21T06:05:21;21.70;;;7.70;;
21170;SDS011;10743;52.160;20.910;2023-11-21T06:07:54;20.70;;;7.60;;
21170;SDS011;10743;52.160;20.910;2023-11-21T06:10:26;22.17;;;8.30;;
21170;SDS011;10743;52.160;20.910;2023-11-21T06:12:55;18.80;;;7.40;;
21170;SDS011;10743;52.160;20.910;2023-11-21T06:15:22;20.73;;;7.43;;
21170;SDS011;10743;52.160;20.910;2023-11-21T06:17:50;22.00;;;7.97;;
21170;SDS011;10743;52.160;20.910;2023-11-21T06:20:20;21.00;;;7.10;;
21170;SDS011;10743;52.160;20.910;2023-11-21T06:22:49;21.73;;;6.90;;
21170;SDS011;10743;52.160;20.910;2023-11-21T06:25:18;16.70;;;7.07;;
21170;SDS011;10743;52.160;20.910;2023-11-21T06:27:46;20.00;;;7.10;;
21170;SDS011;10743;52.160;20.910;2023-11-21T06:30:14;17.93;;;6.53;;
21170;SDS011;10743;52.160;20.910;2023-11-21T06:32:42;18.47;;;7.47;;
21170;SDS011;10743;52.160;20.910;2023-11-21T06:35:14;16.60;;;6.87;;
21170;SDS011;10743;52.160;20.910;2023-11-21T06:37:43;16.87;;;7.33;;
21170;SDS011;10743;52.160;20.910;2023-11-21T06:40:16;19.33;;;7.23;;
21170;SDS011;10743;52.160;20.910;2023-11-21T06:42:45;18.43;;;7.40;;
21170;SDS011;10743;52.160;20.910;2023-11-21T06:45:13;21.37;;;7.20;;
21170;SDS011;10743;52.160;20.910;2023-11-21T06:47:41;18.27;;;6.37;;
21170;SDS011;10743;52.160;20.910;2023-11-21T06:50:09;16.07;;;6.50;;
21170;SDS011;10743;52.160;20.910;2023-11-21T06:52:36;18.70;;;7.07;;
21170;SDS011;10743;52.160;20.910;2023-11-21T06:55:04;23.37;;;9.33;;
21170;SDS011;10743;52.160;20.910;2023-11-21T06:57:34;28.83;;;10.47;;
21170;SDS011;10743;52.160;20.910;2023-11-21T07:00:01;48.80;;;13.70;;
21170;SDS011;10743;52.160;20.910;2023-11-21T07:02:29;113.80;;;26.13;;
21170;SDS011;10743;52.160;20.910;2023-11-21T07:04:56;35.80;;;11.53;;
21170;SDS011;10743;52.160;20.910;2023-11-21T07:07:24;19.73;;;7.47;;
21170;SDS011;10743;52.160;20.910;2023-11-21T07:09:51;19.40;;;7.10;;
21170;SDS011;10743;52.160;20.910;2023-11-21T07:12:18;19.13;;;6.30;;
21170;SDS011;10743;52.160;20.910;2023-11-21T07:14:45;15.23;;;6.50;;
21170;SDS011;10743;52.160;20.910;2023-11-21T07:17:12;16.63;;;7.30;;
21170;SDS011;10743;52.160;20.910;2023-11-21T07:19:39;16.20;;;7.53;;
21170;SDS011;10743;52.160;20.910;2023-11-21T07:22:08;15.93;;;6.53;;
21170;SDS011;10743;52.160;20.910;2023-11-21T07:24:35;15.13;;;6.17;;
21170;SDS011;10743;52.160;20.910;2023-11-21T07:27:03;15.70;;;7.53;;
21170;SDS011;10743;52.160;20.910;2023-11-21T07:29:30;15.63;;;6.73;;
21170;SDS011;10743;52.160;20.910;2023-11-21T07:31:57;14.60;;;6.93;;
21170;SDS011;10743;52.160;20.910;2023-11-21T07:34:25;21.47;;;6.93;;
21170;SDS011;10743;52.160;20.910;2023-11-21T07:36:52;23.77;;;7.67;;
21170;SDS011;10743;52.160;20.910;2023-11-21T07:39:19;21.40;;;7.43;;
21170;SDS011;10743;52.160;20.910;2023-11-21T07:41:46;21.87;;;6.87;;
21170;SDS011;10743;52.160;20.910;2023-11-21T07:44:16;25.87;;;8.57;;
21170;SDS011;10743;52.160;20.910;2023-11-21T07:46:47;25.03;;;7.83;;
21170;SDS011;10743;52.160;20.910;2023-11-21T07:49:16;28.90;;;8.13;;
21170;SDS011;10743;52.160;20.910;2023-11-21T07:51:47;26.33;;;8.00;;
21170;SDS011;10743;52.160;20.910;2023-11-21T07:54:14;24.83;;;8.10;;
21170;SDS011;10743;52.160;20.910;2023-11-21T07:56:42;25.40;;;8.37;;
21170;SDS011;10743;52.160;20.910;2023-11-21T07:59:09;27.13;;;8.87;;
21170;SDS011;10743;52.160;20.910;2023-11-21T08:01:37;31.33;;;8.20;;
21170;SDS011;10743;52.160;20.910;2023-11-21T08:04:04;29.67;;;8.73;;
21170;SDS011;10743;52.160;20.910;2023-11-21T08:06:33;23.03;;;7.90;;
21170;SDS011;10743;52.160;20.910;2023-11-21T08:09:00;28.40;;;9.40;;
21170;SDS011;10743;52.160;20.910;2023-11-21T08:11:27;24.97;;;8.53;;
21170;SDS011;10743;52.160;20.910;2023-11-21T08:13:58;24.07;;;8.10;;
21170;SDS011;10743;52.160;20.910;2023-11-21T08:16:25;23.37;;;8.43;;
21170;SDS011;10743;52.160;20.910;2023-11-21T08:18:54;18.97;;;7.20;;
21170;SDS011;10743;52.160;20.910;2023-11-21T08:21:21;24.63;;;7.67;;
21170;SDS011;10743;52.160;20.910;2023-11-21T08:23:51;18.13;;;6.87;;
21170;SDS011;10743;52.160;20.910;2023-11-21T08:26:21;18.03;;;7.17;;
21170;SDS011;10743;52.160;20.910;2023-11-21T08:28:48;18.90;;;7.33;;
21170;SDS011;10743;52.160;20.910;2023-11-21T08:31:16;21.30;;;7.87;;
21170;SDS011;10743;52.160;20.910;2023-11-21T08:33:43;20.07;;;7.20;;
21170;SDS011;10743;52.160;20.910;2023-11-21T08:36:10;19.30;;;6.93;;
21170;SDS011;10743;52.160;20.910;2023-11-21T08:38:38;18.50;;;7.10;;
21170;SDS011;10743;52.160;20.910;2023-11-21T08:41:05;19.13;;;6.87;;
21170;SDS011;10743;52.160;20.910;2023-11-21T08:43:37;23.30;;;7.23;;
21170;SDS011;10743;52.160;20.910;2023-11-21T08:46:06;21.13;;;7.20;;
21170;SDS011;10743;52.160;20.910;2023-11-21T08:48:35;24.43;;;7.57;;
21170;SDS011;10743;52.160;20.910;2023-11-21T08:51:03;24.03;;;8.20;;
21170;SDS011;10743;52.160;20.910;2023-11-21T08:53:31;22.53;;;7.30;;
21170;SDS011;10743;52.160;20.910;2023-11-21T08:55:58;20.50;;;7.77;;
21170;SDS011;10743;52.160;20.910;2023-11-21T08:58:25;29.57;;;9.83;;
21170;SDS011;10743;52.160;20.910;2023-11-21T09:00:52;23.27;;;7.83;;
21170;SDS011;10743;52.160;20.910;2023-11-21T09:03:19;20.43;;;7.80;;
21170;SDS011;10743;52.160;20.910;2023-11-21T09:05:47;24.37;;;7.73;;
21170;SDS011;10743;52.160;20.910;2023-11-21T09:08:14;25.03;;;8.27;;
21170;SDS011;10743;52.160;20.910;2023-11-21T09:10:41;23.80;;;7.50;;
21170;SDS011;10743;52.160;20.910;2023-11-21T09:13:09;26.33;;;8.07;;
21170;SDS011;10743;52.160;20.910;2023-11-21T09:15:36;25.83;;;8.23;;
21170;SDS011;10743;52.160;20.910;2023-11-21T09:18:03;22.23;;;7.17;;
21170;SDS011;10743;52.160;20.910;2023-11-21T09:20:31;19.57;;;7.57;;
21170;SDS011;10743;52.160;20.910;2023-11-21T09:22:59;22.43;;;8.53;;
21170;SDS011;10743;52.160;20.910;2023-11-21T09:25:26;27.60;;;8.77;;
21170;SDS011;10743;52.160;20.910;2023-11-21T09:27:55;27.03;;;9.27;;
21170;SDS011;10743;52.160;20.910;2023-11-21T09:30:23;22.90;;;8.50;;
21170;SDS011;10743;52.160;20.910;2023-11-21T09:32:51;25.40;;;8.80;;
21170;SDS011;10743;52.160;20.910;2023-11-21T09:35:18;25.70;;;8.77;;
21170;SDS011;10743;52.160;20.910;2023-11-21T09:37:45;27.57;;;8.70;;
21170;SDS011;10743;52.160;20.910;2023-11-21T09:40:15;28.47;;;9.40;;
21170;SDS011;10743;52.160;20.910;2023-11-21T09:42:50;30.07;;;8.93;;
21170;SDS011;10743;52.160;20.910;2023-11-21T09:45:26;36.10;;;9.63;;
21170;SDS011;10743;52.160;20.910;2023-11-21T09:47:55;26.60;;;8.80;;
21170;SDS011;10743;52.160;20.910;2023-11-21T09:50:24;28.23;;;8.90;;
21170;SDS011;10743;52.160;20.910;2023-11-21T09:55:48;27.07;;;9.10;;
21170;SDS011;10743;52.160;20.910;2023-11-21T09:58:19;26.37;;;9.97;;
21170;SDS011;10743;52.160;20.910;2023-11-21T10:00:49;25.30;;;8.83;;
21170;SDS011;10743;52.160;20.910;2023-11-21T10:03:19;21.43;;;8.53;;
21170;SDS011;10743;52.160;20.910;2023-11-21T10:05:46;24.57;;;8.60;;
21170;SDS011;10743;52.160;20.910;2023-11-21T10:08:16;26.73;;;8.77;;
21170;SDS011;10743;52.160;20.910;2023-11-21T10:10:46;25.83;;;8.17;;
21170;SDS011;10743;52.160;20.910;2023-11-21T10:13:18;25.00;;;8.00;;
21170;SDS011;10743;52.160;20.910;2023-11-21T10:15:49;26.53;;;9.27;;
21170;SDS011;10743;52.160;20.910;2023-11-21T10:18:18;26.60;;;9.00;;
21170;SDS011;10743;52.160;20.910;2023-11-21T10:20:45;26.63;;;9.13;;
21170;SDS011;10743;52.160;20.910;2023-11-21T10:23:23;31.90;;;9.00;;
21170;SDS011;10743;52.160;20.910;2023-11-21T10:25:51;21.43;;;8.67;;
21170;SDS011;10743;52.160;20.910;2023-11-21T10:28:20;25.57;;;8.60;;
21170;SDS011;10743;52.160;20.910;2023-11-21T10:30:48;32.07;;;9.10;;
21170;SDS011;10743;52.160;20.910;2023-11-21T10:33:15;33.50;;;9.27;;
21170;SDS011;10743;52.160;20.910;2023-11-21T10:38:17;26.13;;;8.90;;
21170;SDS011;10743;52.160;20.910;2023-11-21T10:40:47;31.47;;;9.83;;
21170;SDS011;10743;52.160;20.910;2023-11-21T10:43:15;27.40;;;9.77;;
21170;SDS011;10743;52.160;20.910;2023-11-21T10:45:43;28.27;;;10.03;;
21170;SDS011;10743;52.160;20.910;2023-11-21T10:48:12;25.20;;;8.67;;
21170;SDS011;10743;52.160;20.910;2023-11-21T10:50:44;30.47;;;9.20;;
21170;SDS011;10743;52.160;20.910;2023-11-21T10:53:13;27.23;;;9.10;;
21170;SDS011;10743;52.160;20.910;2023-11-21T10:55:41;27.60;;;9.47;;
21170;SDS011;10743;52.160;20.910;2023-11-21T10:58:11;31.87;;;8.93;;
21170;SDS011;10743;52.160;20.910;2023-11-21T11:00:40;30.27;;;8.70;;
21170;SDS011;10743;52.160;20.910;2023-11-21T11:03:07;25.73;;;8.70;;
21170;SDS011;10743;52.160;20.910;2023-11-21T11:05:43;30.20;;;8.80;;
21170;SDS011;10743;52.160;20.910;2023-11-21T11:08:29;30.00;;;9.13;;
21170;SDS011;10743;52.160;20.910;2023-11-21T11:10:56;25.73;;;8.40;;
21170;SDS011;10743;52.160;20.910;2023-11-21T11:13:25;34.27;;;9.13;;
21170;SDS011;10743;52.160;20.910;2023-11-21T11:15:56;29.73;;;9.30;;
21170;SDS011;10743;52.160;20.910;2023-11-21T11:18:29;25.90;;;8.80;;
21170;SDS011;10743;52.160;20.910;2023-11-21T11:21:03;27.50;;;8.73;;
21170;SDS011;10743;52.160;20.910;2023-11-21T11:37:53;32.77;;;9.63;;
21170;SDS011;10743;52.160;20.910;2023-11-21T11:40:21;31.47;;;9.57;;
21170;SDS011;10743;52.160;20.910;2023-11-21T11:42:57;31.23;;;10.50;;
21170;SDS011;10743;52.160;20.910;2023-11-21T11:45:25;32.13;;;9.27;;
21170;SDS011;10743;52.160;20.910;2023-11-21T11:48:00;27.03;;;9.30;;
21170;SDS011;10743;52.160;20.910;2023-11-21T11:50:28;36.93;;;10.27;;
21170;SDS011;10743;52.160;20.910;2023-11-21T11:53:11;33.10;;;10.27;;
21170;SDS011;10743;52.160;20.910;2023-11-21T11:55:40;31.60;;;9.90;;
21170;SDS011;10743;52.160;20.910;2023-11-21T11:58:07;30.67;;;9.83;;
21170;SDS011;10743;52.160;20.910;2023-11-21T12:00:35;29.37;;;9.60;;
21170;SDS011;10743;52.160;20.910;2023-11-21T12:03:07;27.63;;;9.03;;
21170;SDS011;10743;52.160;20.910;2023-11-21T12:05:36;27.33;;;8.27;;
21170;SDS011;10743;52.160;20.910;2023-11-21T12:08:06;28.23;;;9.73;;
21170;SDS011;10743;52.160;20.910;2023-11-21T12:10:35;29.13;;;9.93;;
21170;SDS011;10743;52.160;20.910;2023-11-21T12:13:07;27.97;;;9.37;;
21170;SDS011;10743;52.160;20.910;2023-11-21T12:15:37;29.10;;;9.60;;
21170;SDS011;10743;52.160;20.910;2023-11-21T12:18:06;37.97;;;10.37;;
21170;SDS011;10743;52.160;20.910;2023-11-21T12:20:33;33.97;;;10.07;;
21170;SDS011;10743;52.160;20.910;2023-11-21T12:23:06;34.03;;;10.40;;
21170;SDS011;10743;52.160;20.910;2023-11-21T12:25:36;28.93;;;10.13;;
21170;SDS011;10743;52.160;20.910;2023-11-21T12:28:03;28.93;;;9.50;;
21170;SDS011;10743;52.160;20.910;2023-11-21T12:30:32;39.70;;;10.33;;
21170;SDS011;10743;52.160;20.910;2023-11-21T12:33:02;29.60;;;9.47;;
21170;SDS011;10743;52.160;20.910;2023-11-21T12:35:31;32.83;;;9.87;;
21170;SDS011;10743;52.160;20.910;2023-11-21T12:38:01;33.20;;;9.67;;
21170;SDS011;10743;52.160;20.910;2023-11-21T12:40:31;34.10;;;9.93;;
21170;SDS011;10743;52.160;20.910;2023-11-21T12:42:59;29.63;;;9.50;;
21170;SDS011;10743;52.160;20.910;2023-11-21T12:45:28;37.53;;;10.57;;
21170;SDS011;10743;52.160;20.910;2023-11-21T12:47:59;33.83;;;9.57;;
21170;SDS011;10743;52.160;20.910;2023-11-21T12:50:30;33.40;;;10.17;;
21170;SDS011;10743;52.160;20.910;2023-11-21T12:53:00;35.33;;;10.17;;
21170;SDS011;10743;52.160;20.910;2023-11-21T12:55:35;33.00;;;8.93;;
21170;SDS011;10743;52.160;20.910;2023-11-21T12:58:05;30.90;;;9.87;;
21170;SDS011;10743;52.160;20.910;2023-11-21T13:00:39;37.57;;;10.63;;
21170;SDS011;10743;52.160;20.910;2023-11-21T13:03:10;34.90;;;9.93;;
21170;SDS011;10743;52.160;20.910;2023-11-21T13:05:42;36.40;;;10.67;;
21170;SDS011;10743;52.160;20.910;2023-11-21T13:08:14;37.93;;;9.77;;
21170;SDS011;10743;52.160;20.910;2023-11-21T13:10:46;34.17;;;10.90;;
21170;SDS011;10743;52.160;20.910;2023-11-21T13:13:17;31.60;;;10.07;;
21170;SDS011;10743;52.160;20.910;2023-11-21T13:18:23;34.13;;;10.70;;
21170;SDS011;10743;52.160;20.910;2023-11-21T13:20:57;26.60;;;9.70;;
21170;SDS011;10743;52.160;20.910;2023-11-21T13:23:26;35.07;;;11.13;;
21170;SDS011;10743;52.160;20.910;2023-11-21T13:25:53;24.23;;;9.20;;
21170;SDS011;10743;52.160;20.910;2023-11-21T13:28:31;31.23;;;9.30;;
21170;SDS011;10743;52.160;20.910;2023-11-21T13:31:00;34.70;;;10.27;;
21170;SDS011;10743;52.160;20.910;2023-11-21T13:33:37;30.23;;;10.10;;
21170;SDS011;10743;52.160;20.910;2023-11-21T13:36:05;29.63;;;9.53;;
21170;SDS011;10743;52.160;20.910;2023-11-21T13:38:35;27.77;;;9.10;;
21170;SDS011;10743;52.160;20.910;2023-11-21T13:41:03;30.47;;;10.40;;
21170;SDS011;10743;52.160;20.910;2023-11-21T13:43:34;35.17;;;10.13;;
21170;SDS011;10743;52.160;20.910;2023-11-21T13:46:01;38.20;;;10.43;;
21170;SDS011;10743;52.160;20.910;2023-11-21T13:48:34;24.93;;;9.07;;
21170;SDS011;10743;52.160;20.910;2023-11-21T13:51:08;32.13;;;10.20;;
21170;SDS011;10743;52.160;20.910;2023-11-21T13:53:45;45.50;;;11.93;;
21170;SDS011;10743;52.160;20.910;2023-11-21T13:56:18;35.33;;;10.50;;
21170;SDS011;10743;52.160;20.910;2023-11-21T13:58:51;36.13;;;10.17;;
21170;SDS011;10743;52.160;20.910;2023-11-21T14:01:19;38.83;;;11.50;;
21170;SDS011;10743;52.160;20.910;2023-11-21T14:03:57;34.83;;;10.03;;
21170;SDS011;10743;52.160;20.910;2023-11-21T14:06:42;35.07;;;11.07;;
21170;SDS011;10743;52.160;20.910;2023-11-21T14:09:16;37.17;;;10.70;;
21170;SDS011;10743;52.160;20.910;2023-11-21T14:11:52;40.53;;;12.13;;
21170;SDS011;10743;52.160;20.910;2023-11-21T14:14:22;32.67;;;10.80;;
21170;SDS011;10743;52.160;20.910;2023-11-21T14:16:52;38.30;;;11.60;;
21170;SDS011;10743;52.160;20.910;2023-11-21T14:19:19;35.13;;;10.93;;
21170;SDS011;10743;52.160;20.910;2023-11-21T14:21:47;40.07;;;11.67;;
21170;SDS011;10743;52.160;20.910;2023-11-21T14:24:17;31.50;;;10.40;;
21170;SDS011;10743;52.160;20.910;2023-11-21T14:26:45;31.83;;;11.47;;
21170;SDS011;10743;52.160;20.910;2023-11-21T14:29:13;36.73;;;12.40;;
21170;SDS011;10743;52.160;20.910;2023-11-21T14:31:47;41.53;;;13.37;;
21170;SDS011;10743;52.160;20.910;2023-11-21T14:34:15;43.27;;;13.50;;
21170;SDS011;10743;52.160;20.910;2023-11-21T14:36:46;33.00;;;11.23;;
21170;SDS011;10743;52.160;20.910;2023-11-21T14:39:15;40.87;;;12.87;;
21170;SDS011;10743;52.160;20.910;2023-11-21T14:41:50;39.33;;;12.77;;
21170;SDS011;10743;52.160;20.910;2023-11-21T14:44:19;34.83;;;11.83;;
21170;SDS011;10743;52.160;20.910;2023-11-21T14:46:50;42.20;;;13.33;;